sensor_id;sensor_type;location;lat;lon;timestamp;P1;durP1;ratioP1;P2;durP2;ratioP2
68507;SDS011;55510;49.560;19.090;2023-02-19T11:57:18;9.07;;;2.73;;
68507;SDS011;55510;49.560;19.090;2023-02-19T12:00:28;8.57;;;3.25;;
68507;SDS011;55510;49.560;19.090;2023-02-19T12:03:37;7.22;;;2.88;;
68507;SDS011;55510;49.560;19.090;2023-02-19T12:17:02;11.95;;;7.35;;
68507;SDS011;55510;49.560;19.090;2023-02-19T12:30:23;7.73;;;3.43;;
68507;SDS011;55510;49.560;19.090;2023-02-19T12:43:31;11.65;;;6.30;;
68507;SDS011;55510;49.560;19.090;2023-02-19T12:46:35;10.97;;;4.60;;
68507;SDS011;55510;49.560;19.090;2023-02-19T12:49:39;9.30;;;4.72;;
68507;SDS011;55510;49.560;19.090;2023-02-19T12:52:46;18.38;;;9.77;;
68507;SDS011;55510;49.560;19.090;2023-02-19T12:55:51;56.42;;;17.73;;
68507;SDS011;55510;49.560;19.090;2023-02-19T12:58:57;94.82;;;31.50;;
68507;SDS011;55510;49.560;19.090;2023-02-19T13:05:22;33.17;;;12.18;;
68507;SDS011;55510;49.560;19.090;2023-02-19T13:08:31;25.65;;;11.18;;
68507;SDS011;55510;49.560;19.090;2023-02-19T13:19:09;21.03;;;7.70;;
68507;SDS011;55510;49.560;19.090;2023-02-19T13:22:07;54.88;;;18.95;;
68507;SDS011;55510;49.560;19.090;2023-02-19T13:38:48;27.60;;;9.23;;
68507;SDS011;55510;49.560;19.090;2023-02-19T13:41:53;19.05;;;7.95;;
68507;SDS011;55510;49.560;19.090;2023-02-19T13:44:55;18.48;;;7.40;;
68507;SDS011;55510;49.560;19.090;2023-02-19T13:47:58;24.00;;;12.13;;
68507;SDS011;55510;49.560;19.090;2023-02-19T13:54:29;35.10;;;18.55;;
68507;SDS011;55510;49.560;19.090;2023-02-19T13:57:32;15.70;;;8.30;;
68507;SDS011;55510;49.560;19.090;2023-02-19T14:00:46;8.00;;;3.63;;
68507;SDS011;55510;49.560;19.090;2023-02-19T14:03:53;9.73;;;4.27;;
68507;SDS011;55510;49.560;19.090;2023-02-19T14:10:10;12.27;;;3.95;;
68507;SDS011;55510;49.560;19.090;2023-02-19T14:13:42;9.38;;;5.30;;
68507;SDS011;55510;49.560;19.090;2023-02-19T14:16:55;13.10;;;6.33;;
68507;SDS011;55510;49.560;19.090;2023-02-19T14:23:16;89.07;;;44.55;;
68507;SDS011;55510;49.560;19.090;2023-02-19T14:26:23;71.05;;;43.03;;
68507;SDS011;55510;49.560;19.090;2023-02-19T14:29:25;83.00;;;42.25;;
68507;SDS011;55510;49.560;19.090;2023-02-19T14:32:27;12.27;;;6.03;;
68507;SDS011;55510;49.560;19.090;2023-02-19T14:35:31;14.97;;;8.13;;
68507;SDS011;55510;49.560;19.090;2023-02-19T14:38:38;14.82;;;8.35;;
68507;SDS011;55510;49.560;19.090;2023-02-19T14:41:55;7.50;;;3.40;;
68507;SDS011;55510;49.560;19.090;2023-02-19T14:45:02;7.37;;;3.23;;
68507;SDS011;55510;49.560;19.090;2023-02-19T14:48:11;5.80;;;3.03;;
68507;SDS011;55510;49.560;19.090;2023-02-19T14:54:44;56.63;;;19.35;;
68507;SDS011;55510;49.560;19.090;2023-02-19T14:58:16;28.25;;;9.25;;
68507;SDS011;55510;49.560;19.090;2023-02-19T15:01:25;20.63;;;7.87;;
68507;SDS011;55510;49.560;19.090;2023-02-19T15:04:29;59.03;;;18.85;;
68507;SDS011;55510;49.560;19.090;2023-02-19T15:07:34;46.38;;;18.17;;
68507;SDS011;55510;49.560;19.090;2023-02-19T15:10:35;36.35;;;13.75;;
68507;SDS011;55510;49.560;19.090;2023-02-19T15:13:38;27.42;;;12.23;;
68507;SDS011;55510;49.560;19.090;2023-02-19T15:16:45;38.03;;;13.70;;
68507;SDS011;55510;49.560;19.090;2023-02-19T15:19:46;34.30;;;12.20;;
68507;SDS011;55510;49.560;19.090;2023-02-19T15:22:47;27.73;;;11.18;;
68507;SDS011;55510;49.560;19.090;2023-02-19T15:25:49;32.90;;;14.40;;
68507;SDS011;55510;49.560;19.090;2023-02-19T15:29:01;39.83;;;18.43;;
68507;SDS011;55510;49.560;19.090;2023-02-19T15:32:12;31.87;;;15.67;;
68507;SDS011;55510;49.560;19.090;2023-02-19T15:35:18;63.58;;;26.52;;
68507;SDS011;55510;49.560;19.090;2023-02-19T15:38:20;52.40;;;24.25;;
68507;SDS011;55510;49.560;19.090;2023-02-19T15:41:22;32.95;;;15.50;;
68507;SDS011;55510;49.560;19.090;2023-02-19T15:47:51;24.47;;;11.53;;
68507;SDS011;55510;49.560;19.090;2023-02-19T15:51:07;30.98;;;12.57;;
68507;SDS011;55510;49.560;19.090;2023-02-19T16:01:36;28.70;;;11.70;;
68507;SDS011;55510;49.560;19.090;2023-02-19T16:04:42;34.27;;;15.10;;
68507;SDS011;55510;49.560;19.090;2023-02-19T16:07:44;36.13;;;16.75;;
68507;SDS011;55510;49.560;19.090;2023-02-19T16:10:52;63.83;;;26.33;;
68507;SDS011;55510;49.560;19.090;2023-02-19T16:17:24;53.58;;;22.52;;
68507;SDS011;55510;49.560;19.090;2023-02-19T16:20:28;68.47;;;33.00;;
68507;SDS011;55510;49.560;19.090;2023-02-19T16:23:31;58.17;;;26.13;;
68507;SDS011;55510;49.560;19.090;2023-02-19T16:26:42;54.23;;;24.27;;
68507;SDS011;55510;49.560;19.090;2023-02-19T16:29:48;50.75;;;24.00;;
68507;SDS011;55510;49.560;19.090;2023-02-19T16:36:36;79.50;;;36.95;;
68507;SDS011;55510;49.560;19.090;2023-02-19T16:39:40;30.85;;;16.80;;
68507;SDS011;55510;49.560;19.090;2023-02-19T16:45:48;18.58;;;9.30;;
68507;SDS011;55510;49.560;19.090;2023-02-19T16:48:48;24.63;;;12.07;;
68507;SDS011;55510;49.560;19.090;2023-02-19T16:51:50;24.90;;;13.48;;
68507;SDS011;55510;49.560;19.090;2023-02-19T16:54:52;34.60;;;14.68;;
68507;SDS011;55510;49.560;19.090;2023-02-19T16:57:53;51.40;;;19.90;;
68507;SDS011;55510;49.560;19.090;2023-02-19T17:00:54;40.22;;;16.80;;
68507;SDS011;55510;49.560;19.090;2023-02-19T17:03:57;34.25;;;13.05;;
68507;SDS011;55510;49.560;19.090;2023-02-19T17:07:01;108.03;;;22.77;;
68507;SDS011;55510;49.560;19.090;2023-02-19T17:10:02;67.53;;;16.33;;
68507;SDS011;55510;49.560;19.090;2023-02-19T17:13:03;66.32;;;18.40;;
68507;SDS011;55510;49.560;19.090;2023-02-19T17:16:04;50.63;;;17.03;;
68507;SDS011;55510;49.560;19.090;2023-02-19T17:19:15;136.98;;;50.13;;
68507;SDS011;55510;49.560;19.090;2023-02-19T17:22:17;165.32;;;44.28;;
68507;SDS011;55510;49.560;19.090;2023-02-19T17:25:18;51.83;;;14.80;;
68507;SDS011;55510;49.560;19.090;2023-02-19T17:28:22;24.58;;;9.05;;
68507;SDS011;55510;49.560;19.090;2023-02-19T17:31:22;40.83;;;15.33;;
68507;SDS011;55510;49.560;19.090;2023-02-19T17:34:23;72.40;;;31.15;;
68507;SDS011;55510;49.560;19.090;2023-02-19T17:37:24;50.87;;;19.47;;
68507;SDS011;55510;49.560;19.090;2023-02-19T17:40:29;91.90;;;23.08;;
68507;SDS011;55510;49.560;19.090;2023-02-19T17:43:31;69.33;;;15.57;;
68507;SDS011;55510;49.560;19.090;2023-02-19T17:46:31;35.08;;;10.18;;
68507;SDS011;55510;49.560;19.090;2023-02-19T17:49:33;35.08;;;9.80;;
68507;SDS011;55510;49.560;19.090;2023-02-19T17:52:34;41.37;;;14.77;;
68507;SDS011;55510;49.560;19.090;2023-02-19T17:55:35;42.17;;;18.05;;
68507;SDS011;55510;49.560;19.090;2023-02-19T17:58:35;48.73;;;14.47;;
68507;SDS011;55510;49.560;19.090;2023-02-19T18:01:36;34.50;;;10.30;;
68507;SDS011;55510;49.560;19.090;2023-02-19T18:04:38;51.47;;;12.07;;
68507;SDS011;55510;49.560;19.090;2023-02-19T18:07:39;37.27;;;9.63;;
68507;SDS011;55510;49.560;19.090;2023-02-19T18:10:40;27.60;;;7.20;;
68507;SDS011;55510;49.560;19.090;2023-02-19T18:13:40;22.25;;;7.95;;
68507;SDS011;55510;49.560;19.090;2023-02-19T18:16:47;19.83;;;7.83;;
68507;SDS011;55510;49.560;19.090;2023-02-19T18:19:48;29.95;;;10.13;;
68507;SDS011;55510;49.560;19.090;2023-02-19T18:22:49;60.88;;;12.63;;
68507;SDS011;55510;49.560;19.090;2023-02-19T18:25:49;39.10;;;11.67;;
68507;SDS011;55510;49.560;19.090;2023-02-19T18:28:50;42.83;;;12.73;;
68507;SDS011;55510;49.560;19.090;2023-02-19T18:31:51;38.87;;;13.77;;
68507;SDS011;55510;49.560;19.090;2023-02-19T18:34:53;25.80;;;8.32;;
68507;SDS011;55510;49.560;19.090;2023-02-19T18:37:55;21.17;;;6.50;;
68507;SDS011;55510;49.560;19.090;2023-02-19T18:40:56;14.77;;;5.10;;
68507;SDS011;55510;49.560;19.090;2023-02-19T18:43:56;12.87;;;4.77;;
68507;SDS011;55510;49.560;19.090;2023-02-19T18:47:02;22.65;;;6.28;;
68507;SDS011;55510;49.560;19.090;2023-02-19T18:50:03;43.33;;;9.90;;
68507;SDS011;55510;49.560;19.090;2023-02-19T18:53:07;38.73;;;12.13;;
68507;SDS011;55510;49.560;19.090;2023-02-19T18:56:08;36.88;;;12.23;;
68507;SDS011;55510;49.560;19.090;2023-02-19T18:59:09;33.57;;;11.43;;
68507;SDS011;55510;49.560;19.090;2023-02-19T19:02:11;47.20;;;14.35;;
68507;SDS011;55510;49.560;19.090;2023-02-19T19:05:13;18.08;;;5.35;;
68507;SDS011;55510;49.560;19.090;2023-02-19T19:08:15;14.18;;;5.38;;
68507;SDS011;55510;49.560;19.090;2023-02-19T19:11:16;15.10;;;5.67;;
68507;SDS011;55510;49.560;19.090;2023-02-19T19:14:16;14.20;;;4.72;;
68507;SDS011;55510;49.560;19.090;2023-02-19T19:17:17;8.37;;;2.93;;
68507;SDS011;55510;49.560;19.090;2023-02-19T19:20:21;20.90;;;5.28;;
68507;SDS011;55510;49.560;19.090;2023-02-19T19:23:22;21.52;;;5.20;;
68507;SDS011;55510;49.560;19.090;2023-02-19T19:26:23;24.10;;;7.13;;
68507;SDS011;55510;49.560;19.090;2023-02-19T19:29:23;29.13;;;8.95;;
68507;SDS011;55510;49.560;19.090;2023-02-19T19:32:24;24.97;;;8.10;;
68507;SDS011;55510;49.560;19.090;2023-02-19T19:35:25;17.98;;;5.88;;
68507;SDS011;55510;49.560;19.090;2023-02-19T19:38:27;26.47;;;8.53;;
68507;SDS011;55510;49.560;19.090;2023-02-19T19:41:29;23.00;;;7.57;;
68507;SDS011;55510;49.560;19.090;2023-02-19T19:44:30;19.98;;;6.35;;
68507;SDS011;55510;49.560;19.090;2023-02-19T19:47:31;31.73;;;10.53;;
68507;SDS011;55510;49.560;19.090;2023-02-19T19:50:32;32.65;;;9.63;;
68507;SDS011;55510;49.560;19.090;2023-02-19T19:53:33;21.33;;;6.80;;
68507;SDS011;55510;49.560;19.090;2023-02-19T19:56:38;10.70;;;3.67;;
68507;SDS011;55510;49.560;19.090;2023-02-19T19:59:40;14.15;;;4.35;;
68507;SDS011;55510;49.560;19.090;2023-02-19T20:02:41;20.90;;;6.00;;
68507;SDS011;55510;49.560;19.090;2023-02-19T20:05:41;20.85;;;6.22;;
68507;SDS011;55510;49.560;19.090;2023-02-19T20:08:42;15.93;;;4.80;;
68507;SDS011;55510;49.560;19.090;2023-02-19T20:11:44;25.50;;;7.10;;
68507;SDS011;55510;49.560;19.090;2023-02-19T20:14:46;30.23;;;7.50;;
68507;SDS011;55510;49.560;19.090;2023-02-19T20:17:47;35.73;;;9.97;;
68507;SDS011;55510;49.560;19.090;2023-02-19T20:20:51;27.45;;;8.48;;
68507;SDS011;55510;49.560;19.090;2023-02-19T20:23:52;17.10;;;5.10;;
68507;SDS011;55510;49.560;19.090;2023-02-19T20:26:52;9.20;;;2.40;;
68507;SDS011;55510;49.560;19.090;2023-02-19T20:29:57;10.57;;;2.70;;
68507;SDS011;55510;49.560;19.090;2023-02-19T20:33:01;10.27;;;3.37;;
68507;SDS011;55510;49.560;19.090;2023-02-19T20:36:02;11.23;;;3.00;;
68507;SDS011;55510;49.560;19.090;2023-02-19T20:39:04;7.85;;;2.13;;
68507;SDS011;55510;49.560;19.090;2023-02-19T20:42:05;23.30;;;6.83;;
